Alexandre Rolland

Olheiro-Chefe - RC Lens
6 Mar 2029
Terça-feira
Processo

Personalidade

Adaptabilidade (11) Ambição (20) Controvérsia (4) Lealdade (9) Pressão (7) Profissionalismo (4) Espírito Esportivo (1) Temperamento (4)

Perfil

Estilo de Treinamento Democrático
Licença Continental B
Determinação 8
Gestão de Pessoas 14
Motivação 11
Disciplina 13
Satisfação no Trabalho
100%
Fadiga
0%
Função Olheiro-Chefe
Salário 75.4K p/s
Contrato 14.03.2029

Desempenho

Comportamento Bom
Eficácia do Treinamento
61%
Desenvolvimento do Jogador
35%
Prevenção de Lesões
25%
Implementação Tática
70%

Eventos Recentes

Negociação de contrato iniciada 7d atrás
Negociação de contrato iniciada 7d atrás
Negociação de contrato iniciada 7d atrás
Negociação de contrato iniciada 7d atrás
Negociação de contrato iniciada 7d atrás
Negociação de contrato iniciada 7d atrás
Negociação de contrato iniciada 14d atrás
Negociação de contrato iniciada 14d atrás

Monitorando agora

155
Jogador Clube Status Habilidade Confiança Observado Última observação Último voto
Erick Sánchez Botafogo Ativo 146 / 146 40% 2 30.01.2029 -
Jeon Jin-Woo Stockport County Ativo 140 / 135 40% 1 30.01.2029 -
Musa Al-Tamari Le Havre AC Ativo 141 / 141 40% 1 30.01.2029 -
Quentin Ndjantou Paris Saint-Germain Ativo 126 / 122 86% 1 29.01.2029 Aprovar
Daniel Banjaqui Benfica Ativo 133 / 125 40% 2 22.01.2029 -
Hervé Berger FC Metz Ativo 103 / 112 40% 1 22.01.2029 -
Tylel Tati Valenciennes Ativo 137 / 134 40% 1 22.01.2029 -
Andrej Bačanin Vaduz Ativo 118 / 133 40% 1 17.01.2029 -
Tiémoko Berthé Etoiles du Mande Ativo 103 / 124 40% 1 17.01.2029 -
Óscar Perea Le Havre AC Perdido 128 / 139 86% 1 15.01.2029 Aprovar
Saad Agouzoul AJ Auxerre Perdido 124 / 124 60% 1 15.01.2029 Aprovar
Francis Coquelin FC Nantes Perdido 125 / 118 86% 1 08.01.2029 Aprovar
Malte Heyde Esbjerg Ativo 113 / 118 40% 1 03.01.2029 -
Ayyoub Bouaddi West Bromwich Albion Ativo 152 / 158 40% 1 03.01.2029 -
Noa Mikić HNK Gorica Ativo 117 / 126 40% 1 03.01.2029 -
Mohamed Ouédraogo Olympique Lyonnais Ativo 134 / 140 83% 1 17.07.2028 Aprovar
Gabriel Moscardo Paris Saint-Germain Ativo 139 / 131 83% 1 10.07.2028 Aprovar
Jake Evans Huddersfield Town Ativo 114 / 132 40% 2 27.06.2028 -
Babis Kostoulas Manchester City Ativo 148 / 151 40% 1 27.06.2028 -
Salis Abdul Samed OGC Nice Ativo 134 / 141 83% 1 19.06.2028 Aprovar
Trey Nyoni Liverpool Ativo 145 / 156 40% 2 12.06.2028 -
Jenson Jones Penafiel Ativo 100 / 105 40% 1 12.06.2028 -
Mattia Puzone Siracusa Ativo 102 / 117 40% 1 03.06.2028 -
Adem Avdić TSC Ativo 108 / 130 40% 1 03.06.2028 -
Jérôme Rodriguez Tours Ativo 121 / 136 40% 2 31.01.2028 -
Kutlwano Letlhaku Ajax Cape Town Ativo 123 / 116 40% 1 31.01.2028 -
Henrique Carmo CSKA Moscow Ativo 129 / 119 40% 1 27.01.2028 -
Julien Masson Sochaux Ativo 128 / 112 83% 1 24.01.2028 Aprovar
Moussa Yeo Swansea City Ativo 128 / 126 40% 1 01.01.2028 -
Mateus Mané Liverpool Ativo 138 / 154 40% 1 01.01.2028 -
Dramane Kamagaté USM Alger Ativo 110 / 114 40% 1 30.08.2027 Mais informações
Agustín Medina River Plate Ativo 119 / 125 40% 2 26.08.2027 -
Lucas Pyziak Vélez Ativo 102 / 115 40% 1 26.08.2027 -
Noel Sernelius IFK Norrkoping Ativo 107 / 112 40% 1 26.08.2027 -
Elias Achouri San Diego Football Club Ativo 137 / 118 40% 2 24.08.2027 -
Agustín Obregón River Plate Ativo 111 / 119 40% 1 23.08.2027 -
Josué Kongolo Westerlo Ativo 114 / 119 40% 1 23.08.2027 -
Matías Palacios Al Ain Ativo 135 / 156 40% 1 23.08.2027 -
Jens Petter Hauge Bodo/Glimt Ativo 147 / 136 40% 5 21.08.2027 -
Serginho Al Wasl Ativo 129 / 136 40% 1 21.08.2027 -
Benjamín Rollheiser Santos Ativo 138 / 130 40% 1 21.08.2027 -
Matteo Cancellieri Lazio Ativo 150 / 150 40% 1 20.08.2027 -
Assane Diao Como Ativo 149 / 148 40% 2 19.08.2027 -
Nahuel Leivas Montevideo City Torque Ativo 101 / 104 40% 1 19.08.2027 -
Didier Dawson Envigado Ativo 103 / 108 40% 1 19.08.2027 -
Nicolò Zaniolo Udinese Ativo 150 / 137 40% 1 19.08.2027 -
Nadir Zortea Bologna Ativo 140 / 139 40% 1 19.08.2027 -
David Neres Napoli Ativo 160 / 168 40% 1 18.08.2027 -
Aarón Genoa Ativo 137 / 144 40% 1 18.08.2027 -
Giacomo Raspadori Atalanta Ativo 152 / 158 40% 1 18.08.2027 -
Mattia Rutigliano Pro Vercelli Ativo 105 / 110 40% 1 16.08.2027 -
Shuto Nakano Sanfrecce Hiroshima Ativo 140 / 149 40% 2 14.08.2027 -
Matteo Pessina Monza Ativo 137 / 127 40% 3 14.08.2027 -
Nacim Dendani Utrecht Ativo 105 / 102 40% 1 14.08.2027 -
Iván Martín Racing Club Ativo 145 / 144 40% 1 12.08.2027 -
Gérson Cruzeiro Ativo 143 / 135 40% 1 12.08.2027 -
Lucas Piton Vasco da Gama Ativo 137 / 125 40% 2 11.08.2027 -
Ciro Armoa Rosario Central Ativo 97 / 95 40% 1 10.08.2027 -
Salih Özcan Besiktas Ativo 138 / 138 40% 2 06.08.2027 -
Mathias De Amorim Famalicao Ativo 134 / 142 40% 1 06.08.2027 -
Mohamadou Kanté West Ham United Ativo 120 / 138 40% 1 06.08.2027 -
Sebastian Lodberg Pergolettese Ativo 99 / 104 40% 1 06.08.2027 -
Haissem Hassan Corinthians Ativo 135 / 137 40% 2 04.08.2027 -
Jaime Seoane Al-Faisaly Ativo 141 / 141 40% 4 03.08.2027 -
Hirokazu Ishihara FC Tokyo Ativo 132 / 141 40% 1 02.08.2027 -
Luis Palacios Tigres Ativo 102 / 111 40% 1 02.08.2027 -
Toma Bašić Venezia Ativo 136 / 135 40% 5 01.08.2027 -
Mattéo Tramoni Pisa Ativo 135 / 141 40% 2 01.08.2027 -
Davide Calabria Panathinaikos Ativo 148 / 136 40% 5 30.07.2027 -
Diogo Gonçalves Konyaspor Ativo 139 / 122 40% 2 30.07.2027 -
Kiril Despodov PAOK Ativo 135 / 124 40% 1 29.07.2027 -
Sota Nakamura Sanfrecce Hiroshima Ativo 130 / 144 40% 1 29.07.2027 -
Myron van Brederode KV Mechelen Ativo 127 / 131 40% 1 29.07.2027 -
Ismeal Kabia Arsenal Ativo 106 / 108 40% 1 28.07.2027 -
Marcus Holmgren Pedersen Olympiacos Ativo 135 / 140 40% 2 27.07.2027 -
Christopher Opéri Basaksehir Ativo 139 / 140 40% 1 26.07.2027 -
Ashton Muir Manchester City Ativo 104 / 108 40% 1 26.07.2027 -
Martim Cunha Porto Ativo 103 / 106 40% 2 25.07.2027 -
Christian Kouamé Aris Thessaloniki Ativo 139 / 149 40% 3 25.07.2027 -
Edoardo Bove Watford Ativo 135 / 134 40% 1 25.07.2027 -
Yota Komi Kashiwa Reysol Ativo 120 / 113 40% 1 25.07.2027 -
Yehor Hunichev Feniks Ativo 94 / 82 40% 1 25.07.2027 -
Pablo Maffeo Olympiacos Ativo 144 / 147 40% 2 22.07.2027 -
Oleksandr Zubkov AEK Ativo 137 / 143 40% 5 22.07.2027 -
Pedrinho Shakhtar Ativo 139 / 121 40% 2 21.07.2027 -
Rúben Neves Al-Hilal Ativo 148 / 162 40% 4 20.07.2027 -
Christos Zafeiris PAOK Ativo 140 / 143 40% 2 19.07.2027 -
Djibril Sow Genoa Ativo 143 / 146 40% 2 19.07.2027 -
Emam Ashour Al Ahly Ativo 135 / 130 40% 4 19.07.2027 -
Zakaria El Ouahdi Racing Genk Ativo 133 / 126 40% 1 17.07.2027 -
Pedro Henrique Shakhtar Ativo 139 / 134 40% 4 16.07.2027 -
Issa Soumaré Stade Rennais Ativo 138 / 127 40% 1 14.07.2027 -
Wendel Zenit Ativo 148 / 154 40% 2 10.07.2027 -
Jhon Jhon Zenit Ativo 135 / 146 40% 3 10.07.2027 -
Andy Irving Sparta Prague Ativo 132 / 145 40% 2 07.07.2027 -
Evander FC Cincinnati Ativo 135 / 150 40% 1 06.07.2027 -
Frank Onyeka Coventry City Ativo 136 / 145 40% 1 06.07.2027 -
Yusuf Akçiçek Al-Hilal Ativo 129 / 119 40% 1 04.07.2027 -
Bahia Santos Ativo 112 / 115 40% 1 03.07.2027 -
Juan Manuel Villalba Estudiantes Ativo 113 / 118 40% 1 02.07.2027 -
Houssem Aouar Al-Ittihad Ativo 145 / 149 40% 2 29.06.2027 -
Sebastián Marfort Racing Ativo 102 / 114 40% 1 28.06.2027 -
Teboho Mokoena Mamelodi Sundowns Ativo 140 / 129 40% 1 27.06.2027 -
Khaled Al-Nabris Ismaily Ativo 91 / 110 40% 1 26.06.2027 -
Hamdan Abdulrahman Al Shabab Ativo 144 / 137 40% 3 24.06.2027 -
Rodrigo Huescas FC Copenhagen Ativo 134 / 152 40% 1 20.06.2027 -
Tatsuya Ito Kawasaki Frontale Ativo 138 / 145 40% 1 20.06.2027 -
Facundo Pellistri Panathinaikos Ativo 130 / 141 40% 1 19.06.2027 -
Lukáš Provod Slavia Prague Ativo 151 / 136 40% 4 18.06.2027 -
Milot Rashica Besiktas Ativo 137 / 128 40% 7 16.06.2027 -
Tiago Palacios Estudiantes Ativo 136 / 137 40% 1 13.06.2027 -
Máximo Perrone Como Ativo 143 / 138 40% 2 12.06.2027 -
Joris Chotard Stade Brestois Ativo 137 / 137 40% 1 11.06.2027 -
David Douděra Slavia Prague Ativo 132 / 132 40% 1 08.06.2027 -
Maurits Kjærgaard Red Bull Salzburg Ativo 133 / 146 40% 1 08.06.2027 -
Nicolás de la Cruz Flamengo Ativo 134 / 130 40% 1 06.06.2027 -
Marlon Gomes Shakhtar Ativo 140 / 153 40% 2 04.06.2027 -
Christian Krasnodar Ativo 132 / 125 40% 1 04.06.2027 -
Jonathan Bamba Chicago Fire Ativo 128 / 137 40% 3 31.01.2027 -
Sergio Reguilón Club America Ativo 133 / 126 40% 2 31.01.2027 -
Orbelín Pineda Monterrey Ativo 137 / 128 40% 2 27.01.2027 -
Diego Rossi Monterrey Ativo 138 / 118 40% 2 27.01.2027 -
Jefferson Savarino Fluminense Ativo 134 / 141 40% 1 26.01.2027 -
Patrick Berg Bodo/Glimt Ativo 139 / 127 40% 2 25.01.2027 -
Pablo Rosario Porto Ativo 137 / 129 40% 2 24.01.2027 -
Yacine Adli Al-Shabab Ativo 133 / 135 40% 3 22.01.2027 -
Yuma Suzuki Kashima Antlers Ativo 134 / 144 40% 2 15.01.2027 -
Lukáš Haraslín Al-Fateh Ativo 143 / 137 40% 1 15.01.2027 -
Rasmus Kristensen FC Midtjylland Ativo 149 / 127 40% 3 14.01.2027 -
Philip Billing FC Midtjylland Ativo 141 / 127 40% 3 10.01.2027 -
Luca Orellano Monterrey Ativo 143 / 146 40% 1 08.01.2027 -
Richard Ledezma Guadalajara Ativo 127 / 142 40% 1 07.01.2027 -
Jesús Angulo Tigres Ativo 137 / 134 40% 1 07.01.2027 -
Amir Murillo Besiktas Ativo 139 / 131 40% 2 02.01.2027 -
Dani Ceballos Olympique de Marseille Ativo 146 / 140 40% 3 28.08.2026 -
Esequiel Barco Spartak Moscow Ativo 133 / 121 40% 1 28.08.2026 -
Sofyan Amrabat Ajax Ativo 139 / 138 40% 1 24.08.2026 -
Alexey Miranchuk Atlanta United FC Ativo 139 / 135 40% 1 24.08.2026 -
Oussama Targhalline Feyenoord Ativo 131 / 148 40% 1 24.08.2026 -
Carlos Rodríguez Cruz Azul Ativo 133 / 145 40% 2 23.08.2026 -
Malick Fofana Olympique Lyonnais Ativo 134 / 151 40% 2 22.08.2026 -
Lucas Torreira Galatasaray Ativo 144 / 152 40% 3 17.08.2026 -
Gedson Fernandes Spartak Moscow Ativo 142 / 150 40% 1 16.08.2026 -
Pau Víctor Braga Ativo 131 / 127 40% 1 15.08.2026 -
Crysencio Summerville Al-Hilal Ativo 143 / 122 40% 1 14.08.2026 -
Valentino Lazaro Al Ain Ativo 129 / 146 40% 1 12.08.2026 -
Leon Bailey Aston Villa Ativo 145 / 141 40% 1 07.08.2026 -
Romain Del Castillo Stade Brestois Ativo 133 / 144 40% 1 07.08.2026 -
Alexander Bah Benfica Ativo 138 / 125 40% 1 06.08.2026 -
Alberto Costa Porto Ativo 140 / 137 40% 1 06.08.2026 -
Tanner Tessmann Olympique Lyonnais Ativo 141 / 144 40% 1 06.08.2026 -
Galeno Al-Ahli Ativo 151 / 142 40% 1 05.08.2026 -
Leroy Sané Galatasaray Ativo 161 / 171 40% 1 05.08.2026 -
Saša Lukić Ipswich Town Ativo 137 / 150 40% 1 01.08.2026 -
Omar El Hilali Espanyol Ativo 143 / 152 40% 1 01.08.2026 -